sensor_id;sensor_type;location;lat;lon;timestamp;pressure;altitude;pressure_sealevel;temperature;humidity
68994;BME280;56054;50.968;5.816;2023-07-29T00:01:43;99966.22;;;20.50;100.00
68994;BME280;56054;50.968;5.816;2023-07-29T00:04:50;99967.22;;;20.60;100.00
68994;BME280;56054;50.968;5.816;2023-07-29T00:07:57;99966.44;;;20.67;100.00
68994;BME280;56054;50.968;5.816;2023-07-29T00:11:04;99963.59;;;20.51;100.00
68994;BME280;56054;50.968;5.816;2023-07-29T00:14:11;99960.06;;;20.49;100.00
68994;BME280;56054;50.968;5.816;2023-07-29T00:17:18;99961.69;;;20.37;100.00
68994;BME280;56054;50.968;5.816;2023-07-29T00:20:25;99954.00;;;20.57;100.00
68994;BME280;56054;50.968;5.816;2023-07-29T00:23:32;99947.78;;;20.51;100.00
68994;BME280;56054;50.968;5.816;2023-07-29T00:26:39;99944.13;;;20.40;100.00
68994;BME280;56054;50.968;5.816;2023-07-29T00:29:46;99945.13;;;20.48;100.00
68994;BME280;56054;50.968;5.816;2023-07-29T00:32:53;99955.84;;;20.65;100.00
68994;BME280;56054;50.968;5.816;2023-07-29T00:36:00;99957.59;;;20.62;100.00
68994;BME280;56054;50.968;5.816;2023-07-29T00:39:07;99953.13;;;20.58;100.00
68994;BME280;56054;50.968;5.816;2023-07-29T00:42:14;99947.00;;;20.60;100.00
68994;BME280;56054;50.968;5.816;2023-07-29T00:45:23;99957.56;;;20.60;100.00
68994;BME280;56054;50.968;5.816;2023-07-29T00:48:31;99963.69;;;20.58;100.00
68994;BME280;56054;50.968;5.816;2023-07-29T00:51:38;99961.78;;;20.47;100.00
68994;BME280;56054;50.968;5.816;2023-07-29T00:54:45;99956.69;;;20.60;100.00
68994;BME280;56054;50.968;5.816;2023-07-29T00:57:54;99954.94;;;20.62;100.00
68994;BME280;56054;50.968;5.816;2023-07-29T01:01:01;99940.09;;;20.74;100.00
68994;BME280;56054;50.968;5.816;2023-07-29T01:04:08;99939.13;;;20.65;100.00
68994;BME280;56054;50.968;5.816;2023-07-29T01:11:01;99939.25;;;20.77;100.00
68994;BME280;56054;50.968;5.816;2023-07-29T01:14:30;99947.03;;;20.65;100.00
68994;BME280;56054;50.968;5.816;2023-07-29T01:17:54;99932.25;;;20.81;100.00
68994;BME280;56054;50.968;5.816;2023-07-29T01:21:08;99933.84;;;20.65;100.00
68994;BME280;56054;50.968;5.816;2023-07-29T01:24:15;99930.41;;;20.72;100.00
68994;BME280;56054;50.968;5.816;2023-07-29T01:27:22;99937.19;;;20.48;100.00
68994;BME280;56054;50.968;5.816;2023-07-29T01:30:34;99954.91;;;20.60;100.00
68994;BME280;56054;50.968;5.816;2023-07-29T01:37:21;99945.94;;;20.44;100.00
68994;BME280;56054;50.968;5.816;2023-07-29T01:40:29;99945.84;;;20.38;100.00
68994;BME280;56054;50.968;5.816;2023-07-29T01:43:37;99935.34;;;20.43;100.00
68994;BME280;56054;50.968;5.816;2023-07-29T01:46:47;99935.22;;;20.30;100.00
68994;BME280;56054;50.968;5.816;2023-07-29T01:49:54;99945.72;;;20.26;100.00
68994;BME280;56054;50.968;5.816;2023-07-29T01:53:01;99928.16;;;20.25;100.00
68994;BME280;56054;50.968;5.816;2023-07-29T01:56:08;99932.66;;;20.38;100.00
68994;BME280;56054;50.968;5.816;2023-07-29T01:59:24;99935.19;;;20.26;100.00
68994;BME280;56054;50.968;5.816;2023-07-29T02:02:31;99928.81;;;20.05;100.00
68994;BME280;56054;50.968;5.816;2023-07-29T02:05:38;99930.56;;;20.06;100.00
68994;BME280;56054;50.968;5.816;2023-07-29T02:08:45;99941.09;;;20.06;100.00
68994;BME280;56054;50.968;5.816;2023-07-29T02:11:52;99942.72;;;19.94;100.00
68994;BME280;56054;50.968;5.816;2023-07-29T02:14:59;99945.25;;;19.86;100.00
68994;BME280;56054;50.968;5.816;2023-07-29T02:18:06;99941.81;;;19.92;100.00
68994;BME280;56054;50.968;5.816;2023-07-29T02:21:13;99934.91;;;20.01;100.00
68994;BME280;56054;50.968;5.816;2023-07-29T02:24:20;99922.59;;;20.00;100.00
68994;BME280;56054;50.968;5.816;2023-07-29T02:27:27;99922.53;;;19.96;100.00
68994;BME280;56054;50.968;5.816;2023-07-29T02:30:34;99924.34;;;20.00;100.00
68994;BME280;56054;50.968;5.816;2023-07-29T02:33:41;99917.38;;;20.06;100.00
68994;BME280;56054;50.968;5.816;2023-07-29T02:36:49;99915.47;;;19.93;100.00
68994;BME280;56054;50.968;5.816;2023-07-29T02:39:56;99916.44;;;20.00;100.00
68994;BME280;56054;50.968;5.816;2023-07-29T02:43:03;99917.50;;;20.17;100.00
68994;BME280;56054;50.968;5.816;2023-07-29T02:46:10;99919.13;;;20.06;100.00
68994;BME280;56054;50.968;5.816;2023-07-29T02:49:17;99920.16;;;20.19;100.00
68994;BME280;56054;50.968;5.816;2023-07-29T02:52:24;99924.38;;;20.04;100.00
68994;BME280;56054;50.968;5.816;2023-07-29T02:55:31;99927.56;;;19.76;100.00
68994;BME280;56054;50.968;5.816;2023-07-29T02:58:38;99923.13;;;19.73;100.00
68994;BME280;56054;50.968;5.816;2023-07-29T03:01:45;99915.34;;;19.84;100.00
68994;BME280;56054;50.968;5.816;2023-07-29T03:04:52;99909.22;;;19.86;100.00
68994;BME280;56054;50.968;5.816;2023-07-29T03:07:59;99903.03;;;19.81;100.00
68994;BME280;56054;50.968;5.816;2023-07-29T03:11:12;99911.66;;;19.70;100.00
68994;BME280;56054;50.968;5.816;2023-07-29T03:14:20;99922.91;;;19.59;100.00
68994;BME280;56054;50.968;5.816;2023-07-29T03:17:27;99929.94;;;19.59;100.00
68994;BME280;56054;50.968;5.816;2023-07-29T03:20:41;99921.09;;;19.55;100.00
68994;BME280;56054;50.968;5.816;2023-07-29T03:23:49;99907.94;;;19.57;100.00
68994;BME280;56054;50.968;5.816;2023-07-29T03:26:56;99915.03;;;19.62;100.00
68994;BME280;56054;50.968;5.816;2023-07-29T03:30:04;99922.84;;;19.55;100.00
68994;BME280;56054;50.968;5.816;2023-07-29T03:33:11;99919.22;;;19.46;100.00
68994;BME280;56054;50.968;5.816;2023-07-29T03:36:18;99928.88;;;19.48;100.00
68994;BME280;56054;50.968;5.816;2023-07-29T03:39:25;99946.50;;;19.50;100.00
68994;BME280;56054;50.968;5.816;2023-07-29T03:42:32;99937.75;;;19.51;100.00
68994;BME280;56054;50.968;5.816;2023-07-29T03:45:40;99935.13;;;19.54;100.00
68994;BME280;56054;50.968;5.816;2023-07-29T03:48:47;99945.56;;;19.46;100.00
68994;BME280;56054;50.968;5.816;2023-07-29T03:51:57;99941.16;;;19.44;100.00
68994;BME280;56054;50.968;5.816;2023-07-29T03:55:09;99944.75;;;19.52;100.00
68994;BME280;56054;50.968;5.816;2023-07-29T03:58:16;99953.44;;;19.45;100.00
68994;BME280;56054;50.968;5.816;2023-07-29T04:01:23;99949.81;;;19.37;100.00
68994;BME280;56054;50.968;5.816;2023-07-29T04:04:30;99944.41;;;19.28;100.00
68994;BME280;56054;50.968;5.816;2023-07-29T04:07:37;99935.81;;;19.41;100.00
68994;BME280;56054;50.968;5.816;2023-07-29T04:10:44;99928.50;;;19.21;100.00
68994;BME280;56054;50.968;5.816;2023-07-29T04:13:51;99915.75;;;19.51;100.00
68994;BME280;56054;50.968;5.816;2023-07-29T04:16:58;99907.72;;;19.40;100.00
68994;BME280;56054;50.968;5.816;2023-07-29T04:20:05;99912.91;;;19.34;100.00
68994;BME280;56054;50.968;5.816;2023-07-29T04:23:12;99916.22;;;19.20;100.00
68994;BME280;56054;50.968;5.816;2023-07-29T04:26:19;99924.28;;;19.33;100.00
68994;BME280;56054;50.968;5.816;2023-07-29T04:29:26;99932.88;;;19.21;100.00
68994;BME280;56054;50.968;5.816;2023-07-29T04:35:57;99946.78;;;19.11;100.00
68994;BME280;56054;50.968;5.816;2023-07-29T04:39:04;99951.19;;;19.13;100.00
68994;BME280;56054;50.968;5.816;2023-07-29T04:42:11;99956.59;;;19.19;100.00
68994;BME280;56054;50.968;5.816;2023-07-29T04:45:18;99964.13;;;18.98;100.00
68994;BME280;56054;50.968;5.816;2023-07-29T04:48:25;99953.88;;;19.15;100.00
68994;BME280;56054;50.968;5.816;2023-07-29T04:51:32;99955.19;;;18.88;100.00
68994;BME280;56054;50.968;5.816;2023-07-29T04:54:39;99950.97;;;18.98;100.00
68994;BME280;56054;50.968;5.816;2023-07-29T04:57:46;99951.84;;;18.98;100.00
68994;BME280;56054;50.968;5.816;2023-07-29T05:00:56;99966.81;;;19.01;100.00
68994;BME280;56054;50.968;5.816;2023-07-29T05:04:03;99976.22;;;18.87;100.00
68994;BME280;56054;50.968;5.816;2023-07-29T05:07:10;99979.75;;;18.89;100.00
68994;BME280;56054;50.968;5.816;2023-07-29T05:10:18;99987.66;;;18.89;100.00
68994;BME280;56054;50.968;5.816;2023-07-29T05:13:25;99985.91;;;18.88;100.00
68994;BME280;56054;50.968;5.816;2023-07-29T05:16:32;99984.28;;;18.96;100.00
68994;BME280;56054;50.968;5.816;2023-07-29T05:19:41;99989.19;;;18.77;100.00
68994;BME280;56054;50.968;5.816;2023-07-29T05:22:47;99996.84;;;18.65;100.00
68994;BME280;56054;50.968;5.816;2023-07-29T05:25:54;100002.94;;;18.63;100.00
68994;BME280;56054;50.968;5.816;2023-07-29T05:29:01;100017.09;;;18.69;100.00
68994;BME280;56054;50.968;5.816;2023-07-29T05:32:08;100017.06;;;18.66;100.00
68994;BME280;56054;50.968;5.816;2023-07-29T05:35:16;100005.59;;;18.64;100.00
68994;BME280;56054;50.968;5.816;2023-07-29T05:38:23;100006.53;;;18.66;100.00
68994;BME280;56054;50.968;5.816;2023-07-29T05:41:30;100021.69;;;18.79;100.00
68994;BME280;56054;50.968;5.816;2023-07-29T05:44:37;100019.72;;;18.69;100.00
68994;BME280;56054;50.968;5.816;2023-07-29T05:47:47;100006.03;;;18.86;100.00
68994;BME280;56054;50.968;5.816;2023-07-29T05:50:53;100008.63;;;18.83;100.00
68994;BME280;56054;50.968;5.816;2023-07-29T05:54:00;100002.66;;;18.93;100.00
68994;BME280;56054;50.968;5.816;2023-07-29T05:57:09;100003.91;;;19.15;100.00
68994;BME280;56054;50.968;5.816;2023-07-29T06:00:15;100012.13;;;18.85;100.00
68994;BME280;56054;50.968;5.816;2023-07-29T06:03:22;100005.28;;;18.93;100.00
68994;BME280;56054;50.968;5.816;2023-07-29T06:06:29;100011.16;;;18.78;100.00
68994;BME280;56054;50.968;5.816;2023-07-29T06:09:36;100017.63;;;18.97;100.00
68994;BME280;56054;50.968;5.816;2023-07-29T06:12:43;100010.41;;;18.85;100.00
68994;BME280;56054;50.968;5.816;2023-07-29T06:15:50;100020.22;;;18.94;100.00
68994;BME280;56054;50.968;5.816;2023-07-29T06:18:57;100020.38;;;19.03;100.00
68994;BME280;56054;50.968;5.816;2023-07-29T06:22:05;100017.78;;;19.05;100.00
68994;BME280;56054;50.968;5.816;2023-07-29T06:25:12;100016.25;;;19.17;100.00
68994;BME280;56054;50.968;5.816;2023-07-29T06:28:19;100015.38;;;19.18;100.00
68994;BME280;56054;50.968;5.816;2023-07-29T06:31:26;100017.94;;;19.15;100.00
68994;BME280;56054;50.968;5.816;2023-07-29T06:34:33;100018.66;;;19.05;100.00
68994;BME280;56054;50.968;5.816;2023-07-29T06:37:40;100022.13;;;19.02;100.00
68994;BME280;56054;50.968;5.816;2023-07-29T06:40:48;100024.97;;;19.16;100.00
68994;BME280;56054;50.968;5.816;2023-07-29T06:43:55;100020.09;;;19.41;100.00
68994;BME280;56054;50.968;5.816;2023-07-29T06:47:02;100021.88;;;19.39;100.00
68994;BME280;56054;50.968;5.816;2023-07-29T06:50:09;100028.66;;;19.24;100.00
68994;BME280;56054;50.968;5.816;2023-07-29T06:53:16;100024.34;;;19.31;100.00
68994;BME280;56054;50.968;5.816;2023-07-29T06:56:23;100032.88;;;19.70;100.00
68994;BME280;56054;50.968;5.816;2023-07-29T06:59:30;100030.28;;;19.71;100.00
68994;BME280;56054;50.968;5.816;2023-07-29T07:02:37;100040.84;;;19.71;100.00
68994;BME280;56054;50.968;5.816;2023-07-29T07:05:45;100026.66;;;19.66;100.00
68994;BME280;56054;50.968;5.816;2023-07-29T07:08:52;100034.25;;;20.04;100.00
68994;BME280;56054;50.968;5.816;2023-07-29T07:11:59;100030.84;;;20.11;100.00
68994;BME280;56054;50.968;5.816;2023-07-29T07:15:07;100038.75;;;20.11;100.00
68994;BME280;56054;50.968;5.816;2023-07-29T07:18:14;100035.25;;;20.14;100.00
68994;BME280;56054;50.968;5.816;2023-07-29T07:21:21;100034.84;;;20.50;100.00
68994;BME280;56054;50.968;5.816;2023-07-29T07:24:29;100031.94;;;20.28;100.00
68994;BME280;56054;50.968;5.816;2023-07-29T07:27:36;100032.81;;;20.27;100.00
68994;BME280;56054;50.968;5.816;2023-07-29T07:30:43;100025.03;;;20.40;100.00
68994;BME280;56054;50.968;5.816;2023-07-29T07:33:50;100026.94;;;20.51;100.00
68994;BME280;56054;50.968;5.816;2023-07-29T07:36:57;100039.38;;;20.59;100.00
68994;BME280;56054;50.968;5.816;2023-07-29T07:40:04;100032.63;;;20.85;100.00
68994;BME280;56054;50.968;5.816;2023-07-29T07:43:11;100041.25;;;20.69;100.00
68994;BME280;56054;50.968;5.816;2023-07-29T07:46:18;100049.94;;;20.60;100.00
68994;BME280;56054;50.968;5.816;2023-07-29T07:49:25;100042.75;;;20.48;100.00
68994;BME280;56054;50.968;5.816;2023-07-29T07:52:32;100044.91;;;20.80;100.00
68994;BME280;56054;50.968;5.816;2023-07-29T07:55:39;100049.28;;;20.81;100.00
68994;BME280;56054;50.968;5.816;2023-07-29T07:58:46;100048.50;;;20.88;100.00
68994;BME280;56054;50.968;5.816;2023-07-29T08:01:53;100040.41;;;20.74;100.00
68994;BME280;56054;50.968;5.816;2023-07-29T08:05:00;100039.53;;;20.74;100.00
68994;BME280;56054;50.968;5.816;2023-07-29T08:08:07;100044.03;;;20.83;100.00
68994;BME280;56054;50.968;5.816;2023-07-29T08:11:14;100045.13;;;21.06;100.00
68994;BME280;56054;50.968;5.816;2023-07-29T08:14:21;100044.34;;;21.15;99.62
68994;BME280;56054;50.968;5.816;2023-07-29T08:17:28;100048.72;;;21.13;99.49
68994;BME280;56054;50.968;5.816;2023-07-29T08:20:35;100047.88;;;21.19;100.00
68994;BME280;56054;50.968;5.816;2023-07-29T08:23:42;100049.66;;;21.18;100.00
68994;BME280;56054;50.968;5.816;2023-07-29T08:26:49;100052.28;;;21.15;99.24
68994;BME280;56054;50.968;5.816;2023-07-29T08:29:56;100057.31;;;20.90;100.00
68994;BME280;56054;50.968;5.816;2023-07-29T08:33:03;100064.34;;;20.91;100.00
68994;BME280;56054;50.968;5.816;2023-07-29T08:36:10;100072.38;;;20.98;99.67
68994;BME280;56054;50.968;5.816;2023-07-29T08:39:17;100067.00;;;20.90;100.00
68994;BME280;56054;50.968;5.816;2023-07-29T08:42:29;100081.19;;;21.00;100.00
68994;BME280;56054;50.968;5.816;2023-07-29T08:45:38;100081.06;;;20.87;97.78
68994;BME280;56054;50.968;5.816;2023-07-29T08:48:46;100083.94;;;21.12;98.28
68994;BME280;56054;50.968;5.816;2023-07-29T08:51:53;100079.59;;;21.19;98.04
68994;BME280;56054;50.968;5.816;2023-07-29T08:55:00;100073.66;;;21.40;97.93
68994;BME280;56054;50.968;5.816;2023-07-29T08:58:07;100077.28;;;21.51;96.64
68994;BME280;56054;50.968;5.816;2023-07-29T09:01:15;100068.50;;;21.55;96.93
68994;BME280;56054;50.968;5.816;2023-07-29T09:04:22;100069.41;;;21.60;97.37
68994;BME280;56054;50.968;5.816;2023-07-29T09:07:29;100074.69;;;21.60;96.99
68994;BME280;56054;50.968;5.816;2023-07-29T09:10:43;100064.25;;;21.77;94.01
68994;BME280;56054;50.968;5.816;2023-07-29T09:13:50;100059.28;;;22.21;89.88
68994;BME280;56054;50.968;5.816;2023-07-29T09:16:57;100058.38;;;22.22;91.15
68994;BME280;56054;50.968;5.816;2023-07-29T09:20:05;100061.06;;;22.32;91.24
68994;BME280;56054;50.968;5.816;2023-07-29T09:23:12;100068.88;;;22.10;88.58
68994;BME280;56054;50.968;5.816;2023-07-29T09:26:23;100060.97;;;22.18;87.14
68994;BME280;56054;50.968;5.816;2023-07-29T09:29:30;100065.44;;;22.20;87.17
68994;BME280;56054;50.968;5.816;2023-07-29T09:32:39;100055.06;;;22.76;87.46
68994;BME280;56054;50.968;5.816;2023-07-29T09:35:45;100055.03;;;22.70;87.88
68994;BME280;56054;50.968;5.816;2023-07-29T09:38:55;100049.66;;;22.42;87.66
68994;BME280;56054;50.968;5.816;2023-07-29T09:42:02;100056.75;;;22.54;89.74
68994;BME280;56054;50.968;5.816;2023-07-29T09:45:09;100049.66;;;22.45;88.85
68994;BME280;56054;50.968;5.816;2023-07-29T09:48:22;100060.22;;;22.34;88.07
68994;BME280;56054;50.968;5.816;2023-07-29T09:51:29;100059.50;;;22.86;89.00
68994;BME280;56054;50.968;5.816;2023-07-29T09:54:37;100053.38;;;23.05;86.13
68994;BME280;56054;50.968;5.816;2023-07-29T09:57:45;100057.69;;;22.68;86.55
68994;BME280;56054;50.968;5.816;2023-07-29T10:00:52;100059.50;;;22.94;88.31
68994;BME280;56054;50.968;5.816;2023-07-29T10:03:59;100060.38;;;22.85;87.43
68994;BME280;56054;50.968;5.816;2023-07-29T10:07:07;100057.66;;;22.65;87.62
68994;BME280;56054;50.968;5.816;2023-07-29T10:10:15;100057.78;;;23.02;88.26
68994;BME280;56054;50.968;5.816;2023-07-29T10:13:23;100053.28;;;22.87;89.03
68994;BME280;56054;50.968;5.816;2023-07-29T10:16:32;100064.78;;;22.75;87.56
68994;BME280;56054;50.968;5.816;2023-07-29T10:19:40;100054.06;;;22.44;88.78
68994;BME280;56054;50.968;5.816;2023-07-29T10:22:48;100067.38;;;22.61;88.21
68994;BME280;56054;50.968;5.816;2023-07-29T10:26:02;100057.63;;;22.57;88.18
68994;BME280;56054;50.968;5.816;2023-07-29T10:29:10;100051.53;;;22.83;87.06
68994;BME280;56054;50.968;5.816;2023-07-29T10:32:23;100056.94;;;23.29;85.45
68994;BME280;56054;50.968;5.816;2023-07-29T10:35:34;100046.31;;;23.50;84.31
68994;BME280;56054;50.968;5.816;2023-07-29T10:38:41;100048.09;;;23.30;85.54
68994;BME280;56054;50.968;5.816;2023-07-29T10:41:58;100040.03;;;22.72;89.24
68994;BME280;56054;50.968;5.816;2023-07-29T10:45:19;100047.06;;;22.65;89.56
68994;BME280;56054;50.968;5.816;2023-07-29T10:51:40;100048.09;;;23.39;87.06
68994;BME280;56054;50.968;5.816;2023-07-29T10:54:48;100050.75;;;23.36;87.07
68994;BME280;56054;50.968;5.816;2023-07-29T10:58:11;100050.75;;;23.56;87.57
68994;BME280;56054;50.968;5.816;2023-07-29T11:01:31;100041.03;;;23.75;86.74
68994;BME280;56054;50.968;5.816;2023-07-29T11:04:50;100039.22;;;23.71;85.29
68994;BME280;56054;50.968;5.816;2023-07-29T11:07:57;100037.44;;;23.95;87.12
68994;BME280;56054;50.968;5.816;2023-07-29T11:11:08;100037.25;;;24.56;84.28
68994;BME280;56054;50.968;5.816;2023-07-29T11:14:19;100030.13;;;24.64;83.79
68994;BME280;56054;50.968;5.816;2023-07-29T11:17:25;100026.69;;;24.39;84.30
68994;BME280;56054;50.968;5.816;2023-07-29T11:20:33;100029.13;;;24.84;84.51
68994;BME280;56054;50.968;5.816;2023-07-29T11:23:40;100012.72;;;23.79;85.23
68994;BME280;56054;50.968;5.816;2023-07-29T11:26:47;100010.06;;;23.65;85.69
68994;BME280;56054;50.968;5.816;2023-07-29T11:29:58;100010.94;;;23.62;86.40
68994;BME280;56054;50.968;5.816;2023-07-29T11:33:05;100011.88;;;23.75;86.82
68994;BME280;56054;50.968;5.816;2023-07-29T11:36:18;100019.53;;;24.61;84.24
68994;BME280;56054;50.968;5.816;2023-07-29T11:39:25;100009.03;;;24.27;83.65
68994;BME280;56054;50.968;5.816;2023-07-29T11:42:33;99999.34;;;24.16;83.66
68994;BME280;56054;50.968;5.816;2023-07-29T11:45:40;100013.50;;;24.08;83.39
68994;BME280;56054;50.968;5.816;2023-07-29T11:48:47;100010.03;;;23.89;84.56
68994;BME280;56054;50.968;5.816;2023-07-29T11:51:54;100012.75;;;23.76;85.27
68994;BME280;56054;50.968;5.816;2023-07-29T11:55:03;100010.97;;;23.78;85.77
68994;BME280;56054;50.968;5.816;2023-07-29T11:58:10;100000.34;;;23.62;87.01
68994;BME280;56054;50.968;5.816;2023-07-29T12:01:17;100005.69;;;23.36;87.00
68994;BME280;56054;50.968;5.816;2023-07-29T12:04:32;100002.16;;;23.42;87.57
68994;BME280;56054;50.968;5.816;2023-07-29T12:07:39;100012.75;;;23.36;89.87
68994;BME280;56054;50.968;5.816;2023-07-29T12:10:47;100014.53;;;23.17;92.99
68994;BME280;56054;50.968;5.816;2023-07-29T12:13:54;100003.94;;;23.07;95.47
68994;BME280;56054;50.968;5.816;2023-07-29T12:17:03;99996.84;;;23.03;95.64
68994;BME280;56054;50.968;5.816;2023-07-29T12:20:10;100002.09;;;22.76;98.83
68994;BME280;56054;50.968;5.816;2023-07-29T12:23:24;100005.63;;;22.81;100.00
68994;BME280;56054;50.968;5.816;2023-07-29T12:26:31;100005.47;;;22.27;100.00
68994;BME280;56054;50.968;5.816;2023-07-29T12:29:42;100015.16;;;22.20;100.00
68994;BME280;56054;50.968;5.816;2023-07-29T12:32:49;100028.47;;;22.42;100.00
68994;BME280;56054;50.968;5.816;2023-07-29T12:35:56;100020.53;;;22.48;100.00
68994;BME280;56054;50.968;5.816;2023-07-29T12:39:03;100045.91;;;22.06;100.00
68994;BME280;56054;50.968;5.816;2023-07-29T12:42:10;100052.75;;;21.69;100.00
68994;BME280;56054;50.968;5.816;2023-07-29T12:45:18;100061.41;;;21.49;100.00
68994;BME280;56054;50.968;5.816;2023-07-29T12:48:24;100063.84;;;21.28;100.00
68994;BME280;56054;50.968;5.816;2023-07-29T12:51:32;100065.31;;;20.98;100.00
68994;BME280;56054;50.968;5.816;2023-07-29T12:54:38;100058.63;;;20.55;100.00
68994;BME280;56054;50.968;5.816;2023-07-29T12:57:45;100059.09;;;20.90;100.00
68994;BME280;56054;50.968;5.816;2023-07-29T13:00:52;100055.03;;;20.48;100.00
68994;BME280;56054;50.968;5.816;2023-07-29T13:03:59;100060.59;;;20.69;100.00
68994;BME280;56054;50.968;5.816;2023-07-29T13:07:06;100063.44;;;20.86;100.00
68994;BME280;56054;50.968;5.816;2023-07-29T13:10:13;100064.75;;;21.31;100.00
68994;BME280;56054;50.968;5.816;2023-07-29T13:13:20;100046.84;;;21.01;100.00
68994;BME280;56054;50.968;5.816;2023-07-29T13:16:28;100036.53;;;21.30;100.00
68994;BME280;56054;50.968;5.816;2023-07-29T13:19:35;100040.22;;;21.45;100.00
68994;BME280;56054;50.968;5.816;2023-07-29T13:22:42;100039.34;;;21.47;100.00
68994;BME280;56054;50.968;5.816;2023-07-29T13:25:50;100030.06;;;22.14;100.00
68994;BME280;56054;50.968;5.816;2023-07-29T13:28:57;100017.66;;;22.00;100.00
68994;BME280;56054;50.968;5.816;2023-07-29T13:32:05;100022.38;;;22.74;100.00
68994;BME280;56054;50.968;5.816;2023-07-29T13:35:11;100035.47;;;22.21;100.00
68994;BME280;56054;50.968;5.816;2023-07-29T13:38:18;100035.34;;;22.11;100.00
68994;BME280;56054;50.968;5.816;2023-07-29T13:41:25;100046.69;;;21.85;100.00
68994;BME280;56054;50.968;5.816;2023-07-29T13:44:32;100042.19;;;21.72;100.00
68994;BME280;56054;50.968;5.816;2023-07-29T13:47:39;100046.56;;;21.68;100.00
68994;BME280;56054;50.968;5.816;2023-07-29T13:50:46;100036.94;;;21.78;100.00
68994;BME280;56054;50.968;5.816;2023-07-29T13:53:53;100029.97;;;21.97;100.00
68994;BME280;56054;50.968;5.816;2023-07-29T13:57:00;100023.88;;;22.09;100.00
68994;BME280;56054;50.968;5.816;2023-07-29T14:00:07;100024.94;;;22.34;100.00
68994;BME280;56054;50.968;5.816;2023-07-29T14:03:14;100024.03;;;22.32;100.00
68994;BME280;56054;50.968;5.816;2023-07-29T14:06:21;100027.53;;;22.28;100.00
68994;BME280;56054;50.968;5.816;2023-07-29T14:09:28;100030.84;;;21.91;100.00
68994;BME280;56054;50.968;5.816;2023-07-29T14:12:35;100026.34;;;21.76;100.00
68994;BME280;56054;50.968;5.816;2023-07-29T14:15:42;100035.22;;;21.83;100.00
68994;BME280;56054;50.968;5.816;2023-07-29T14:18:49;100028.19;;;21.88;100.00
68994;BME280;56054;50.968;5.816;2023-07-29T14:21:56;100036.81;;;21.59;100.00
68994;BME280;56054;50.968;5.816;2023-07-29T14:25:04;100043.84;;;21.59;100.00
68994;BME280;56054;50.968;5.816;2023-07-29T14:28:13;100032.41;;;21.60;100.00
68994;BME280;56054;50.968;5.816;2023-07-29T14:31:20;100037.78;;;21.74;100.00
68994;BME280;56054;50.968;5.816;2023-07-29T14:34:27;100028.25;;;22.04;100.00
68994;BME280;56054;50.968;5.816;2023-07-29T14:37:34;100029.13;;;21.95;100.00
68994;BME280;56054;50.968;5.816;2023-07-29T14:40:41;100017.06;;;22.61;100.00
68994;BME280;56054;50.968;5.816;2023-07-29T14:43:48;100036.59;;;23.03;100.00
68994;BME280;56054;50.968;5.816;2023-07-29T14:46:55;100030.44;;;23.20;100.00
68994;BME280;56054;50.968;5.816;2023-07-29T14:50:02;100026.81;;;22.81;100.00
68994;BME280;56054;50.968;5.816;2023-07-29T14:53:10;100024.97;;;22.54;100.00
68994;BME280;56054;50.968;5.816;2023-07-29T14:56:17;100025.06;;;22.94;100.00
68994;BME280;56054;50.968;5.816;2023-07-29T14:59:24;100024.22;;;23.21;100.00
68994;BME280;56054;50.968;5.816;2023-07-29T15:02:31;100022.41;;;22.97;100.00
68994;BME280;56054;50.968;5.816;2023-07-29T15:05:38;100021.44;;;22.44;100.00
68994;BME280;56054;50.968;5.816;2023-07-29T15:08:45;100014.31;;;22.32;100.00
68994;BME280;56054;50.968;5.816;2023-07-29T15:11:59;100009.97;;;22.60;100.00
68994;BME280;56054;50.968;5.816;2023-07-29T15:15:07;100022.41;;;22.97;100.00
68994;BME280;56054;50.968;5.816;2023-07-29T15:18:14;100013.66;;;23.19;100.00
68994;BME280;56054;50.968;5.816;2023-07-29T15:21:29;100023.34;;;23.49;100.00
68994;BME280;56054;50.968;5.816;2023-07-29T15:24:36;100025.09;;;23.84;100.00
68994;BME280;56054;50.968;5.816;2023-07-29T15:27:42;100037.41;;;24.04;100.00
68994;BME280;56054;50.968;5.816;2023-07-29T15:30:52;100026.88;;;23.76;100.00
68994;BME280;56054;50.968;5.816;2023-07-29T15:33:58;100020.69;;;23.40;100.00
68994;BME280;56054;50.968;5.816;2023-07-29T15:37:05;100014.50;;;23.66;100.00
68994;BME280;56054;50.968;5.816;2023-07-29T15:40:12;100014.50;;;23.57;100.00
68994;BME280;56054;50.968;5.816;2023-07-29T15:43:19;100012.75;;;22.99;100.00
68994;BME280;56054;50.968;5.816;2023-07-29T15:46:26;100016.28;;;23.39;100.00
68994;BME280;56054;50.968;5.816;2023-07-29T15:49:33;100001.25;;;23.14;100.00
68994;BME280;56054;50.968;5.816;2023-07-29T15:52:40;99997.72;;;23.33;100.00
68994;BME280;56054;50.968;5.816;2023-07-29T15:55:47;99994.19;;;23.56;100.00
68994;BME280;56054;50.968;5.816;2023-07-29T15:58:55;99998.56;;;23.90;100.00
68994;BME280;56054;50.968;5.816;2023-07-29T16:02:02;99990.59;;;23.67;100.00
68994;BME280;56054;50.968;5.816;2023-07-29T16:05:09;99999.44;;;23.86;100.00
68994;BME280;56054;50.968;5.816;2023-07-29T16:08:16;99991.47;;;23.97;100.00
68994;BME280;56054;50.968;5.816;2023-07-29T16:11:23;99993.28;;;23.83;100.00
68994;BME280;56054;50.968;5.816;2023-07-29T16:14:30;99994.19;;;23.45;100.00
68994;BME280;56054;50.968;5.816;2023-07-29T16:17:37;99995.06;;;23.21;100.00
68994;BME280;56054;50.968;5.816;2023-07-29T16:20:44;99990.66;;;23.14;100.00
68994;BME280;56054;50.968;5.816;2023-07-29T16:23:51;99993.31;;;23.11;100.00
68994;BME280;56054;50.968;5.816;2023-07-29T16:26:59;100026.81;;;22.84;100.00
68994;BME280;56054;50.968;5.816;2023-07-29T16:30:07;100018.91;;;22.95;100.00